sensor_id;sensor_type;location;lat;lon;timestamp;pressure;altitude;pressure_sealevel;temperature;humidity
7335;BME280;3708;42.632;23.378;2023-09-18T00:01:18;94815.00;;;20.88;63.50
7335;BME280;3708;42.632;23.378;2023-09-18T00:03:45;94814.59;;;20.82;63.76
7335;BME280;3708;42.632;23.378;2023-09-18T00:06:13;94812.78;;;20.93;63.53
7335;BME280;3708;42.632;23.378;2023-09-18T00:08:39;94810.19;;;21.00;63.33
7335;BME280;3708;42.632;23.378;2023-09-18T00:11:06;94800.19;;;20.90;63.51
7335;BME280;3708;42.632;23.378;2023-09-18T00:13:35;94792.59;;;20.89;63.61
7335;BME280;3708;42.632;23.378;2023-09-18T00:16:01;94801.69;;;20.88;63.55
7335;BME280;3708;42.632;23.378;2023-09-18T00:18:29;94798.69;;;20.89;63.71
7335;BME280;3708;42.632;23.378;2023-09-18T00:20:56;94791.88;;;20.95;63.32
7335;BME280;3708;42.632;23.378;2023-09-18T00:23:23;94801.03;;;20.98;63.23
7335;BME280;3708;42.632;23.378;2023-09-18T00:25:50;94796.44;;;20.98;63.16
7335;BME280;3708;42.632;23.378;2023-09-18T00:28:16;94806.94;;;20.74;63.91
7335;BME280;3708;42.632;23.378;2023-09-18T00:30:49;94797.84;;;20.82;63.62
7335;BME280;3708;42.632;23.378;2023-09-18T00:33:16;94803.94;;;20.79;63.83
7335;BME280;3708;42.632;23.378;2023-09-18T00:35:47;94804.41;;;20.95;63.12
7335;BME280;3708;42.632;23.378;2023-09-18T00:38:15;94800.25;;;21.01;62.94
7335;BME280;3708;42.632;23.378;2023-09-18T00:40:42;94805.56;;;20.94;62.71
7335;BME280;3708;42.632;23.378;2023-09-18T00:43:10;94813.44;;;20.80;63.02
7335;BME280;3708;42.632;23.378;2023-09-18T00:45:40;94806.22;;;20.84;63.06
7335;BME280;3708;42.632;23.378;2023-09-18T00:48:10;94811.22;;;20.89;62.91
7335;BME280;3708;42.632;23.378;2023-09-18T00:50:38;94804.72;;;20.83;62.96
7335;BME280;3708;42.632;23.378;2023-09-18T00:53:07;94805.13;;;20.85;62.93
7335;BME280;3708;42.632;23.378;2023-09-18T00:55:36;94808.44;;;20.75;62.99
7335;BME280;3708;42.632;23.378;2023-09-18T00:58:04;94813.34;;;20.66;63.36
7335;BME280;3708;42.632;23.378;2023-09-18T01:00:31;94816.72;;;20.63;63.24
7335;BME280;3708;42.632;23.378;2023-09-18T01:02:58;94818.97;;;20.57;63.44
7335;BME280;3708;42.632;23.378;2023-09-18T01:05:27;94810.22;;;20.60;63.59
7335;BME280;3708;42.632;23.378;2023-09-18T01:07:54;94812.13;;;20.60;63.68
7335;BME280;3708;42.632;23.378;2023-09-18T01:10:24;94822.44;;;20.65;63.31
7335;BME280;3708;42.632;23.378;2023-09-18T01:12:57;94820.41;;;20.51;63.89
7335;BME280;3708;42.632;23.378;2023-09-18T01:15:33;94818.28;;;20.67;63.62
7335;BME280;3708;42.632;23.378;2023-09-18T01:18:02;94820.66;;;20.79;63.19
7335;BME280;3708;42.632;23.378;2023-09-18T01:20:31;94822.97;;;20.81;62.83
7335;BME280;3708;42.632;23.378;2023-09-18T01:22:59;94820.56;;;20.69;63.28
7335;BME280;3708;42.632;23.378;2023-09-18T01:25:26;94819.16;;;20.82;63.01
7335;BME280;3708;42.632;23.378;2023-09-18T01:27:52;94819.22;;;20.92;62.68
7335;BME280;3708;42.632;23.378;2023-09-18T01:30:19;94814.28;;;20.94;62.51
7335;BME280;3708;42.632;23.378;2023-09-18T01:32:46;94812.00;;;20.93;62.65
7335;BME280;3708;42.632;23.378;2023-09-18T01:35:15;94828.09;;;21.07;61.78
7335;BME280;3708;42.632;23.378;2023-09-18T01:37:43;94822.38;;;21.05;61.72
7335;BME280;3708;42.632;23.378;2023-09-18T01:40:13;94819.38;;;21.10;61.72
7335;BME280;3708;42.632;23.378;2023-09-18T01:42:40;94819.78;;;21.12;61.51
7335;BME280;3708;42.632;23.378;2023-09-18T01:45:08;94821.72;;;21.22;61.26
7335;BME280;3708;42.632;23.378;2023-09-18T01:47:36;94829.38;;;21.27;61.00
7335;BME280;3708;42.632;23.378;2023-09-18T01:50:03;94822.84;;;21.14;61.03
7335;BME280;3708;42.632;23.378;2023-09-18T01:52:31;94817.13;;;21.12;61.20
7335;BME280;3708;42.632;23.378;2023-09-18T01:55:00;94818.66;;;21.13;60.98
7335;BME280;3708;42.632;23.378;2023-09-18T01:57:28;94818.16;;;21.00;61.34
7335;BME280;3708;42.632;23.378;2023-09-18T01:59:55;94829.16;;;20.99;61.51
7335;BME280;3708;42.632;23.378;2023-09-18T02:02:22;94831.19;;;21.09;61.30
7335;BME280;3708;42.632;23.378;2023-09-18T02:04:49;94829.31;;;21.13;61.28
7335;BME280;3708;42.632;23.378;2023-09-18T02:07:16;94831.59;;;21.11;61.33
7335;BME280;3708;42.632;23.378;2023-09-18T02:09:42;94824.56;;;20.92;61.80
7335;BME280;3708;42.632;23.378;2023-09-18T02:12:10;94826.50;;;20.95;61.96
7335;BME280;3708;42.632;23.378;2023-09-18T02:14:44;94829.94;;;20.96;62.00
7335;BME280;3708;42.632;23.378;2023-09-18T02:17:10;94826.75;;;20.83;62.29
7335;BME280;3708;42.632;23.378;2023-09-18T02:19:38;94829.06;;;20.85;62.43
7335;BME280;3708;42.632;23.378;2023-09-18T02:22:05;94829.53;;;20.97;62.07
7335;BME280;3708;42.632;23.378;2023-09-18T02:24:32;94833.25;;;20.82;62.40
7335;BME280;3708;42.632;23.378;2023-09-18T02:26:58;94832.59;;;20.99;62.11
7335;BME280;3708;42.632;23.378;2023-09-18T02:29:25;94829.53;;;20.97;61.99
7335;BME280;3708;42.632;23.378;2023-09-18T02:31:54;94833.66;;;20.88;62.19
7335;BME280;3708;42.632;23.378;2023-09-18T02:34:20;94832.16;;;20.90;62.03
7335;BME280;3708;42.632;23.378;2023-09-18T02:36:47;94828.31;;;20.88;62.06
7335;BME280;3708;42.632;23.378;2023-09-18T02:39:14;94828.38;;;20.95;61.92
7335;BME280;3708;42.632;23.378;2023-09-18T02:41:41;94833.34;;;20.96;61.72
7335;BME280;3708;42.632;23.378;2023-09-18T02:44:08;94829.44;;;20.83;61.99
7335;BME280;3708;42.632;23.378;2023-09-18T02:46:36;94821.81;;;20.82;61.91
7335;BME280;3708;42.632;23.378;2023-09-18T02:49:05;94824.72;;;20.66;62.43
7335;BME280;3708;42.632;23.378;2023-09-18T02:51:32;94837.03;;;20.81;62.10
7335;BME280;3708;42.632;23.378;2023-09-18T02:53:59;94830.81;;;20.63;62.33
7335;BME280;3708;42.632;23.378;2023-09-18T02:56:25;94820.25;;;20.74;62.12
7335;BME280;3708;42.632;23.378;2023-09-18T02:58:52;94829.72;;;20.71;62.22
7335;BME280;3708;42.632;23.378;2023-09-18T03:01:18;94827.47;;;20.77;61.74
7335;BME280;3708;42.632;23.378;2023-09-18T03:03:45;94841.94;;;20.76;61.79
7335;BME280;3708;42.632;23.378;2023-09-18T03:06:13;94829.72;;;20.71;61.85
7335;BME280;3708;42.632;23.378;2023-09-18T03:08:40;94826.59;;;20.62;61.98
7335;BME280;3708;42.632;23.378;2023-09-18T03:11:11;94833.41;;;20.56;62.07
7335;BME280;3708;42.632;23.378;2023-09-18T03:13:43;94832.66;;;20.59;62.22
7335;BME280;3708;42.632;23.378;2023-09-18T03:16:11;94834.84;;;20.46;62.57
7335;BME280;3708;42.632;23.378;2023-09-18T03:18:38;94831.00;;;20.44;62.57
7335;BME280;3708;42.632;23.378;2023-09-18T03:21:05;94835.78;;;20.28;62.83
7335;BME280;3708;42.632;23.378;2023-09-18T03:23:33;94825.59;;;20.33;62.96
7335;BME280;3708;42.632;23.378;2023-09-18T03:26:00;94823.81;;;20.48;62.50
7335;BME280;3708;42.632;23.378;2023-09-18T03:28:28;94820.06;;;20.52;62.33
7335;BME280;3708;42.632;23.378;2023-09-18T03:30:55;94815.09;;;20.51;62.17
7335;BME280;3708;42.632;23.378;2023-09-18T03:33:21;94816.31;;;20.61;61.94
7335;BME280;3708;42.632;23.378;2023-09-18T03:35:50;94808.97;;;20.47;62.09
7335;BME280;3708;42.632;23.378;2023-09-18T03:38:19;94807.81;;;20.44;62.07
7335;BME280;3708;42.632;23.378;2023-09-18T03:40:48;94817.75;;;20.51;62.13
7335;BME280;3708;42.632;23.378;2023-09-18T03:43:15;94811.31;;;20.56;61.90
7335;BME280;3708;42.632;23.378;2023-09-18T03:45:42;94810.22;;;20.57;61.96
7335;BME280;3708;42.632;23.378;2023-09-18T03:48:09;94805.56;;;20.46;62.02
7335;BME280;3708;42.632;23.378;2023-09-18T03:50:36;94811.91;;;20.31;62.35
7335;BME280;3708;42.632;23.378;2023-09-18T03:53:04;94809.88;;;20.21;62.38
7335;BME280;3708;42.632;23.378;2023-09-18T03:55:30;94805.97;;;20.12;62.76
7335;BME280;3708;42.632;23.378;2023-09-18T03:57:59;94811.63;;;20.10;62.86
7335;BME280;3708;42.632;23.378;2023-09-18T04:00:26;94810.75;;;19.99;62.95
7335;BME280;3708;42.632;23.378;2023-09-18T04:02:52;94810.00;;;19.99;62.68
7335;BME280;3708;42.632;23.378;2023-09-18T04:05:19;94810.13;;;19.43;64.89
7335;BME280;3708;42.632;23.378;2023-09-18T04:07:46;94814.22;;;19.70;64.17
7335;BME280;3708;42.632;23.378;2023-09-18T04:10:13;94810.13;;;19.76;64.08
7335;BME280;3708;42.632;23.378;2023-09-18T04:12:45;94814.91;;;19.63;64.38
7335;BME280;3708;42.632;23.378;2023-09-18T04:15:15;94813.03;;;19.64;64.11
7335;BME280;3708;42.632;23.378;2023-09-18T04:17:43;94809.44;;;19.49;64.57
7335;BME280;3708;42.632;23.378;2023-09-18T04:20:10;94807.19;;;19.51;64.70
7335;BME280;3708;42.632;23.378;2023-09-18T04:22:44;94816.31;;;19.54;64.76
7335;BME280;3708;42.632;23.378;2023-09-18T04:25:15;94815.56;;;19.53;64.50
7335;BME280;3708;42.632;23.378;2023-09-18T04:27:42;94815.72;;;19.38;65.20
7335;BME280;3708;42.632;23.378;2023-09-18T04:30:09;94816.25;;;19.50;64.89
7335;BME280;3708;42.632;23.378;2023-09-18T04:32:38;94821.63;;;19.54;64.94
7335;BME280;3708;42.632;23.378;2023-09-18T04:35:06;94816.78;;;19.63;64.72
7335;BME280;3708;42.632;23.378;2023-09-18T04:37:36;94819.56;;;19.73;64.65
7335;BME280;3708;42.632;23.378;2023-09-18T04:40:04;94812.66;;;19.65;64.03
7335;BME280;3708;42.632;23.378;2023-09-18T04:42:35;94814.94;;;19.67;64.51
7335;BME280;3708;42.632;23.378;2023-09-18T04:45:02;94815.78;;;19.71;64.33
7335;BME280;3708;42.632;23.378;2023-09-18T04:47:29;94818.22;;;19.87;64.20
7335;BME280;3708;42.632;23.378;2023-09-18T04:49:57;94822.84;;;19.93;64.06
7335;BME280;3708;42.632;23.378;2023-09-18T04:52:24;94825.19;;;19.98;63.70
7335;BME280;3708;42.632;23.378;2023-09-18T04:54:50;94828.03;;;19.83;63.82
7335;BME280;3708;42.632;23.378;2023-09-18T04:57:19;94818.31;;;19.97;63.54
7335;BME280;3708;42.632;23.378;2023-09-18T04:59:47;94814.97;;;20.04;63.32
7335;BME280;3708;42.632;23.378;2023-09-18T05:02:14;94818.81;;;20.06;63.29
7335;BME280;3708;42.632;23.378;2023-09-18T05:04:41;94814.34;;;20.14;63.23
7335;BME280;3708;42.632;23.378;2023-09-18T05:07:10;94813.72;;;20.27;63.02
7335;BME280;3708;42.632;23.378;2023-09-18T05:09:36;94810.03;;;20.35;62.89
7335;BME280;3708;42.632;23.378;2023-09-18T05:12:04;94808.56;;;20.41;62.74
7335;BME280;3708;42.632;23.378;2023-09-18T05:14:34;94809.75;;;20.47;62.48
7335;BME280;3708;42.632;23.378;2023-09-18T05:17:01;94817.75;;;20.51;62.41
7335;BME280;3708;42.632;23.378;2023-09-18T05:19:28;94814.00;;;20.56;61.90
7335;BME280;3708;42.632;23.378;2023-09-18T05:21:54;94827.31;;;20.56;62.71
7335;BME280;3708;42.632;23.378;2023-09-18T05:24:23;94833.47;;;20.67;62.51
7335;BME280;3708;42.632;23.378;2023-09-18T05:26:52;94830.19;;;20.80;62.27
7335;BME280;3708;42.632;23.378;2023-09-18T05:29:19;94829.53;;;20.94;61.82
7335;BME280;3708;42.632;23.378;2023-09-18T05:31:46;94833.00;;;21.01;61.46
7335;BME280;3708;42.632;23.378;2023-09-18T05:34:13;94828.53;;;21.12;61.33
7335;BME280;3708;42.632;23.378;2023-09-18T05:36:40;94828.66;;;21.30;60.86
7335;BME280;3708;42.632;23.378;2023-09-18T05:39:07;94831.00;;;21.42;60.27
7335;BME280;3708;42.632;23.378;2023-09-18T05:41:38;94836.41;;;21.56;60.11
7335;BME280;3708;42.632;23.378;2023-09-18T05:44:05;94837.22;;;21.67;59.65
7335;BME280;3708;42.632;23.378;2023-09-18T05:46:34;94838.03;;;21.78;59.10
7335;BME280;3708;42.632;23.378;2023-09-18T05:49:01;94836.97;;;21.86;58.90
7335;BME280;3708;42.632;23.378;2023-09-18T05:51:29;94838.50;;;21.98;58.73
7335;BME280;3708;42.632;23.378;2023-09-18T05:53:56;94841.22;;;22.05;58.47
7335;BME280;3708;42.632;23.378;2023-09-18T05:56:22;94840.09;;;22.10;58.07
7335;BME280;3708;42.632;23.378;2023-09-18T05:58:51;94842.34;;;22.00;58.16
7335;BME280;3708;42.632;23.378;2023-09-18T06:01:18;94848.41;;;21.90;58.27
7335;BME280;3708;42.632;23.378;2023-09-18T06:03:45;94849.41;;;21.65;58.96
7335;BME280;3708;42.632;23.378;2023-09-18T06:06:13;94844.47;;;21.70;59.28
7335;BME280;3708;42.632;23.378;2023-09-18T06:08:39;94847.25;;;21.88;58.62
7335;BME280;3708;42.632;23.378;2023-09-18T06:11:06;94842.69;;;21.95;59.05
7335;BME280;3708;42.632;23.378;2023-09-18T06:13:33;94842.78;;;22.24;58.56
7335;BME280;3708;42.632;23.378;2023-09-18T06:16:05;94841.22;;;22.05;58.55
7335;BME280;3708;42.632;23.378;2023-09-18T06:18:33;94843.88;;;22.09;58.54
7335;BME280;3708;42.632;23.378;2023-09-18T06:21:01;94847.00;;;22.28;57.92
7335;BME280;3708;42.632;23.378;2023-09-18T06:23:28;94848.16;;;22.41;57.85
7335;BME280;3708;42.632;23.378;2023-09-18T06:25:55;94843.66;;;22.66;57.33
7335;BME280;3708;42.632;23.378;2023-09-18T06:28:22;94841.38;;;22.86;56.34
7335;BME280;3708;42.632;23.378;2023-09-18T06:30:49;94850.84;;;22.48;56.59
7335;BME280;3708;42.632;23.378;2023-09-18T06:33:17;94842.75;;;22.06;57.39
7335;BME280;3708;42.632;23.378;2023-09-18T06:35:44;94847.41;;;22.37;57.06
7335;BME280;3708;42.632;23.378;2023-09-18T06:38:10;94850.13;;;22.65;56.29
7335;BME280;3708;42.632;23.378;2023-09-18T06:40:38;94853.59;;;22.87;55.72
7335;BME280;3708;42.632;23.378;2023-09-18T06:43:05;94853.13;;;22.50;56.43
7335;BME280;3708;42.632;23.378;2023-09-18T06:45:32;94840.22;;;22.87;55.46
7335;BME280;3708;42.632;23.378;2023-09-18T06:47:59;94851.28;;;22.61;55.60
7335;BME280;3708;42.632;23.378;2023-09-18T06:50:28;94848.56;;;22.47;56.32
7335;BME280;3708;42.632;23.378;2023-09-18T06:52:55;94845.56;;;22.80;55.48
7335;BME280;3708;42.632;23.378;2023-09-18T06:55:22;94849.78;;;22.85;54.83
7335;BME280;3708;42.632;23.378;2023-09-18T06:57:49;94849.38;;;22.65;54.91
7335;BME280;3708;42.632;23.378;2023-09-18T07:00:17;94855.09;;;22.60;55.60
7335;BME280;3708;42.632;23.378;2023-09-18T07:02:46;94852.81;;;23.11;54.78
7335;BME280;3708;42.632;23.378;2023-09-18T07:05:13;94852.44;;;23.34;54.18
7335;BME280;3708;42.632;23.378;2023-09-18T07:07:41;94852.78;;;23.54;53.30
7335;BME280;3708;42.632;23.378;2023-09-18T07:10:08;94851.97;;;23.74;52.75
7335;BME280;3708;42.632;23.378;2023-09-18T07:12:35;94855.34;;;23.89;52.61
7335;BME280;3708;42.632;23.378;2023-09-18T07:15:02;94845.75;;;24.02;52.20
7335;BME280;3708;42.632;23.378;2023-09-18T07:17:30;94848.06;;;23.96;51.97
7335;BME280;3708;42.632;23.378;2023-09-18T07:19:57;94850.75;;;23.93;52.12
7335;BME280;3708;42.632;23.378;2023-09-18T07:22:25;94848.00;;;24.14;51.92
7335;BME280;3708;42.632;23.378;2023-09-18T07:24:54;94848.63;;;24.39;51.31
7335;BME280;3708;42.632;23.378;2023-09-18T07:27:21;94857.16;;;24.23;51.13
7335;BME280;3708;42.632;23.378;2023-09-18T07:29:47;94855.13;;;24.42;50.59
7335;BME280;3708;42.632;23.378;2023-09-18T07:32:14;94858.81;;;23.82;51.26
7335;BME280;3708;42.632;23.378;2023-09-18T07:34:41;94859.09;;;24.09;51.08
7335;BME280;3708;42.632;23.378;2023-09-18T07:37:08;94857.81;;;24.45;50.79
7335;BME280;3708;42.632;23.378;2023-09-18T07:39:35;94860.22;;;24.18;50.84
7335;BME280;3708;42.632;23.378;2023-09-18T07:42:04;94860.00;;;24.57;50.44
7335;BME280;3708;42.632;23.378;2023-09-18T07:44:31;94859.13;;;24.78;49.90
7335;BME280;3708;42.632;23.378;2023-09-18T07:46:58;94857.63;;;24.70;49.46
7335;BME280;3708;42.632;23.378;2023-09-18T07:49:27;94855.38;;;24.65;49.90
7335;BME280;3708;42.632;23.378;2023-09-18T07:51:53;94856.84;;;24.73;48.82
7335;BME280;3708;42.632;23.378;2023-09-18T07:54:20;94857.44;;;25.02;48.81
7335;BME280;3708;42.632;23.378;2023-09-18T07:56:47;94854.56;;;25.23;48.53
7335;BME280;3708;42.632;23.378;2023-09-18T07:59:16;94855.56;;;25.39;47.85
7335;BME280;3708;42.632;23.378;2023-09-18T08:01:43;94851.56;;;25.58;47.75
7335;BME280;3708;42.632;23.378;2023-09-18T08:04:09;94858.88;;;25.54;47.71
7335;BME280;3708;42.632;23.378;2023-09-18T08:06:36;94851.44;;;25.68;47.40
7335;BME280;3708;42.632;23.378;2023-09-18T08:09:04;94848.63;;;25.45;48.28
7335;BME280;3708;42.632;23.378;2023-09-18T08:11:31;94840.47;;;25.56;47.73
7335;BME280;3708;42.632;23.378;2023-09-18T08:13:58;94849.41;;;25.80;46.65
7335;BME280;3708;42.632;23.378;2023-09-18T08:16:26;94842.31;;;25.62;46.97
7335;BME280;3708;42.632;23.378;2023-09-18T08:18:54;94852.34;;;25.92;46.59
7335;BME280;3708;42.632;23.378;2023-09-18T08:21:21;94840.72;;;26.02;46.25
7335;BME280;3708;42.632;23.378;2023-09-18T08:23:50;94853.00;;;26.33;46.10
7335;BME280;3708;42.632;23.378;2023-09-18T08:26:16;94844.81;;;26.71;45.33
7335;BME280;3708;42.632;23.378;2023-09-18T08:28:43;94844.22;;;26.86;44.37
7335;BME280;3708;42.632;23.378;2023-09-18T08:31:10;94844.47;;;26.95;43.78
7335;BME280;3708;42.632;23.378;2023-09-18T08:33:39;94839.72;;;27.03;43.71
7335;BME280;3708;42.632;23.378;2023-09-18T08:36:05;94826.97;;;27.30;43.13
7335;BME280;3708;42.632;23.378;2023-09-18T08:38:32;94823.88;;;27.32;43.05
7335;BME280;3708;42.632;23.378;2023-09-18T08:40:59;94833.38;;;27.40;42.84
7335;BME280;3708;42.632;23.378;2023-09-18T08:43:26;94828.06;;;27.36;42.59
7335;BME280;3708;42.632;23.378;2023-09-18T08:45:55;94825.09;;;27.50;41.98
7335;BME280;3708;42.632;23.378;2023-09-18T08:48:28;94823.97;;;27.71;41.76
7335;BME280;3708;42.632;23.378;2023-09-18T08:51:01;94813.94;;;27.71;41.87
7335;BME280;3708;42.632;23.378;2023-09-18T08:53:30;94815.66;;;27.81;41.10
7335;BME280;3708;42.632;23.378;2023-09-18T08:55:58;94821.25;;;27.90;40.67
7335;BME280;3708;42.632;23.378;2023-09-18T08:58:28;94816.00;;;27.83;40.65
7335;BME280;3708;42.632;23.378;2023-09-18T09:00:58;94815.66;;;27.81;40.47
7335;BME280;3708;42.632;23.378;2023-09-18T09:03:26;94811.53;;;27.97;40.49
7335;BME280;3708;42.632;23.378;2023-09-18T09:05:53;94809.53;;;28.01;40.15
7335;BME280;3708;42.632;23.378;2023-09-18T09:08:21;94816.63;;;28.11;40.11
7335;BME280;3708;42.632;23.378;2023-09-18T09:10:48;94818.19;;;28.28;39.80
7335;BME280;3708;42.632;23.378;2023-09-18T09:13:15;94818.63;;;28.42;38.94
7335;BME280;3708;42.632;23.378;2023-09-18T09:15:46;94816.25;;;28.64;38.82
7335;BME280;3708;42.632;23.378;2023-09-18T09:18:15;94819.81;;;28.61;39.04
7335;BME280;3708;42.632;23.378;2023-09-18T09:20:52;94807.25;;;28.71;37.79
7335;BME280;3708;42.632;23.378;2023-09-18T09:23:19;94812.94;;;28.56;38.44
7335;BME280;3708;42.632;23.378;2023-09-18T09:25:47;94805.41;;;28.67;38.05
7335;BME280;3708;42.632;23.378;2023-09-18T09:28:14;94806.84;;;28.88;38.23
7335;BME280;3708;42.632;23.378;2023-09-18T09:30:42;94804.88;;;28.73;38.25
7335;BME280;3708;42.632;23.378;2023-09-18T09:33:12;94805.81;;;28.82;37.68
7335;BME280;3708;42.632;23.378;2023-09-18T09:35:39;94803.56;;;28.45;37.86
7335;BME280;3708;42.632;23.378;2023-09-18T09:38:10;94795.53;;;28.77;37.49
7335;BME280;3708;42.632;23.378;2023-09-18T09:40:40;94794.22;;;28.85;37.05
7335;BME280;3708;42.632;23.378;2023-09-18T09:43:11;94794.22;;;28.85;37.39
7335;BME280;3708;42.632;23.378;2023-09-18T09:45:41;94797.31;;;29.00;36.76
7335;BME280;3708;42.632;23.378;2023-09-18T09:48:08;94792.31;;;29.30;37.13
7335;BME280;3708;42.632;23.378;2023-09-18T09:50:45;94791.25;;;29.57;35.85
7335;BME280;3708;42.632;23.378;2023-09-18T09:53:13;94789.31;;;29.86;35.96
7335;BME280;3708;42.632;23.378;2023-09-18T09:55:40;94790.53;;;30.10;35.03
7335;BME280;3708;42.632;23.378;2023-09-18T09:58:10;94776.84;;;30.17;34.81
7335;BME280;3708;42.632;23.378;2023-09-18T10:00:42;94782.19;;;29.92;35.66
7335;BME280;3708;42.632;23.378;2023-09-18T10:03:15;94781.66;;;29.97;34.63
7335;BME280;3708;42.632;23.378;2023-09-18T10:05:43;94785.91;;;29.24;35.38
7335;BME280;3708;42.632;23.378;2023-09-18T10:08:14;94777.78;;;29.40;35.88
7335;BME280;3708;42.632;23.378;2023-09-18T10:10:46;94772.34;;;29.57;35.00
7335;BME280;3708;42.632;23.378;2023-09-18T10:13:17;94771.41;;;29.34;35.77
7335;BME280;3708;42.632;23.378;2023-09-18T10:15:48;94769.56;;;29.89;35.90
7335;BME280;3708;42.632;23.378;2023-09-18T10:18:27;94773.88;;;29.99;34.63
7335;BME280;3708;42.632;23.378;2023-09-18T10:21:03;94772.44;;;30.36;34.86
7335;BME280;3708;42.632;23.378;2023-09-18T10:23:41;94773.19;;;30.61;33.93
7335;BME280;3708;42.632;23.378;2023-09-18T10:26:14;94775.41;;;30.75;33.33
7335;BME280;3708;42.632;23.378;2023-09-18T10:28:47;94762.75;;;30.85;32.83
7335;BME280;3708;42.632;23.378;2023-09-18T10:31:18;94764.00;;;30.34;33.67
7335;BME280;3708;42.632;23.378;2023-09-18T10:33:47;94760.94;;;30.57;33.86
7335;BME280;3708;42.632;23.378;2023-09-18T10:36:16;94751.75;;;30.79;33.47
7335;BME280;3708;42.632;23.378;2023-09-18T10:38:44;94748.78;;;30.99;32.56
7335;BME280;3708;42.632;23.378;2023-09-18T10:41:15;94745.81;;;31.19;32.72
7335;BME280;3708;42.632;23.378;2023-09-18T10:43:44;94739.47;;;31.34;32.85
7335;BME280;3708;42.632;23.378;2023-09-18T10:46:14;94746.28;;;31.82;31.66
7335;BME280;3708;42.632;23.378;2023-09-18T10:48:41;94730.06;;;31.60;31.59
7335;BME280;3708;42.632;23.378;2023-09-18T10:51:10;94735.31;;;31.86;31.31
7335;BME280;3708;42.632;23.378;2023-09-18T10:53:39;94736.28;;;31.92;30.74
7335;BME280;3708;42.632;23.378;2023-09-18T10:56:06;94730.78;;;32.44;29.88
7335;BME280;3708;42.632;23.378;2023-09-18T10:58:33;94728.28;;;32.59;29.72
7335;BME280;3708;42.632;23.378;2023-09-18T11:01:02;94720.16;;;32.59;29.59
7335;BME280;3708;42.632;23.378;2023-09-18T11:03:33;94716.88;;;32.73;29.40
7335;BME280;3708;42.632;23.378;2023-09-18T11:06:04;94722.78;;;32.89;29.13
7335;BME280;3708;42.632;23.378;2023-09-18T11:08:33;94721.75;;;32.96;28.88
7335;BME280;3708;42.632;23.378;2023-09-18T11:11:07;94715.00;;;33.28;28.47
7335;BME280;3708;42.632;23.378;2023-09-18T11:13:39;94711.22;;;33.43;27.76
7335;BME280;3708;42.632;23.378;2023-09-18T11:16:33;94705.94;;;33.40;28.42
7335;BME280;3708;42.632;23.378;2023-09-18T11:19:12;94710.88;;;32.96;28.78
7335;BME280;3708;42.632;23.378;2023-09-18T11:21:43;94704.59;;;33.17;28.68
7335;BME280;3708;42.632;23.378;2023-09-18T11:24:16;94704.72;;;33.50;27.81
7335;BME280;3708;42.632;23.378;2023-09-18T11:26:45;94699.13;;;33.71;27.29
7335;BME280;3708;42.632;23.378;2023-09-18T11:29:15;94698.16;;;33.93;27.12
7335;BME280;3708;42.632;23.378;2023-09-18T11:31:44;94690.53;;;34.24;27.30
7335;BME280;3708;42.632;23.378;2023-09-18T11:34:21;94693.34;;;33.88;27.40
7335;BME280;3708;42.632;23.378;2023-09-18T11:36:50;94691.44;;;34.21;26.78
7335;BME280;3708;42.632;23.378;2023-09-18T11:39:34;94681.94;;;33.56;27.29
7335;BME280;3708;42.632;23.378;2023-09-18T11:42:07;94682.56;;;33.33;27.96
7335;BME280;3708;42.632;23.378;2023-09-18T11:44:35;94688.88;;;32.94;28.24
7335;BME280;3708;42.632;23.378;2023-09-18T11:47:07;94684.16;;;32.58;28.54
7335;BME280;3708;42.632;23.378;2023-09-18T11:49:39;94687.03;;;32.15;29.15
7335;BME280;3708;42.632;23.378;2023-09-18T11:52:09;94676.22;;;31.93;29.40
7335;BME280;3708;42.632;23.378;2023-09-18T11:54:39;94674.53;;;31.56;29.75
7335;BME280;3708;42.632;23.378;2023-09-18T11:57:09;94671.03;;;31.34;30.02
7335;BME280;3708;42.632;23.378;2023-09-18T11:59:38;94666.50;;;31.09;30.42
7335;BME280;3708;42.632;23.378;2023-09-18T12:02:06;94669.78;;;31.04;30.84
7335;BME280;3708;42.632;23.378;2023-09-18T12:04:34;94665.50;;;30.81;31.26
7335;BME280;3708;42.632;23.378;2023-09-18T12:07:03;94668.69;;;30.67;31.53
7335;BME280;3708;42.632;23.378;2023-09-18T12:09:31;94677.09;;;30.69;32.16
7335;BME280;3708;42.632;23.378;2023-09-18T12:11:58;94679.63;;;30.64;32.01
7335;BME280;3708;42.632;23.378;2023-09-18T12:14:30;94672.50;;;30.57;31.44
7335;BME280;3708;42.632;23.378;2023-09-18T12:16:59;94672.63;;;30.29;32.30
7335;BME280;3708;42.632;23.378;2023-09-18T12:19:27;94668.41;;;30.28;32.64
7335;BME280;3708;42.632;23.378;2023-09-18T12:21:54;94674.03;;;29.83;33.87
7335;BME280;3708;42.632;23.378;2023-09-18T12:24:23;94657.13;;;29.41;34.87
7335;BME280;3708;42.632;23.378;2023-09-18T12:26:51;94656.31;;;29.82;34.32
7335;BME280;3708;42.632;23.378;2023-09-18T12:29:21;94657.50;;;30.44;33.17
7335;BME280;3708;42.632;23.378;2023-09-18T12:31:48;94658.47;;;30.97;32.27
7335;BME280;3708;42.632;23.378;2023-09-18T12:34:18;94657.13;;;31.66;31.88
7335;BME280;3708;42.632;23.378;2023-09-18T12:36:47;94658.97;;;32.49;30.73
7335;BME280;3708;42.632;23.378;2023-09-18T12:39:15;94647.31;;;33.06;29.88
7335;BME280;3708;42.632;23.378;2023-09-18T12:41:45;94653.13;;;33.59;29.00
7335;BME280;3708;42.632;23.378;2023-09-18T12:44:12;94657.66;;;34.13;28.16
7335;BME280;3708;42.632;23.378;2023-09-18T12:46:42;94656.38;;;34.23;28.16
7335;BME280;3708;42.632;23.378;2023-09-18T12:49:20;94653.88;;;34.43;27.56
7335;BME280;3708;42.632;23.378;2023-09-18T12:51:57;94655.97;;;34.48;27.66
7335;BME280;3708;42.632;23.378;2023-09-18T12:54:40;94651.97;;;34.82;27.23
7335;BME280;3708;42.632;23.378;2023-09-18T12:57:10;94651.91;;;35.14;26.33
7335;BME280;3708;42.632;23.378;2023-09-18T12:59:37;94636.41;;;35.20;26.35
7335;BME280;3708;42.632;23.378;2023-09-18T13:02:06;94645.31;;;35.06;26.80
7335;BME280;3708;42.632;23.378;2023-09-18T13:04:34;94646.44;;;35.14;26.66
7335;BME280;3708;42.632;23.378;2023-09-18T13:07:03;94644.81;;;35.75;25.91
7335;BME280;3708;42.632;23.378;2023-09-18T13:09:31;94637.91;;;36.09;25.42
7335;BME280;3708;42.632;23.378;2023-09-18T13:11:58;94640.16;;;36.25;24.81
7335;BME280;3708;42.632;23.378;2023-09-18T13:14:26;94638.75;;;36.50;24.62
7335;BME280;3708;42.632;23.378;2023-09-18T13:16:53;94637.59;;;36.56;24.98